Kezdőlap
METAR-TAF:

METAR-TAF

Repülőterek :

Nordholz, Németország

földrajzi szélesség: 53-46N, földrajzi hosszúság: 008-40E, magasság: 23 m

Jelenlegi meteorológiai megfigyelések

A jelentés 59 perccel ezelõtt készült, 12:20 UTC
Északnyugati szél 12 kt
Hőmérséklet 16°C
Páratartalom 63%
Légköri nyomás 1019 hPa
Látótávolság 10 km, vagy több
Szórványos felhőzet 2600 lábon

METAR: ETMN 191220Z 32012KT 9999 SCT026 16/09 Q1019 BLU+BLU+

Idő: 15:19 (13:19 UTC)

Előrejelzés

A jelentés 2 órával és 54 perccel ezelõtt készült, 10:25 UTC
Az előrejelzés 19-én 11 óra UTC és 19-én 20 óra UTC között érvényes
Észak-északnyugati szél 12 kt széllökések: 22 kt
Látótávolság 10 km, vagy több
Szórványos felhőzet 2000 lábon
Szórványos felhőzet 4000 lábon

TAF: ETMN 191025Z 1911/1920 33012G22KT 9999 NSW SCT020 SCT040

Meteorológiai megfigyelések és előrejelzések több, mint 4000 repülőtéren (METAR és TAF jelentéseket).

A térképen piros és sárga pontok jelzik az elérhető meteorológiai állomásokat.

Mozgassa az egeret a pont fölött, hogy megjelenjen az állomás neve.

Azután kattintson az időjárási megfigyelések és előrejelzések megtekintéséhez.

A térkép megváltoztatása: kattintson a fekete keresztel jelölt zöld gombra ráközelítéshez, a vonallal jelölt zöld gombra távolításhoz, vagy a zöld nyilakra a szomszédos térképek eléréséhez.


METAR-TAF: